sensor_id;sensor_type;location;lat;lon;timestamp;P1;durP1;ratioP1;P2;durP2;ratioP2
71351;SDS011;59159;51.652;4.864;2023-05-10T00:02:17;4.88;;;1.63;;
71351;SDS011;59159;51.652;4.864;2023-05-10T00:04:43;4.53;;;1.50;;
71351;SDS011;59159;51.652;4.864;2023-05-10T00:07:09;5.87;;;2.00;;
71351;SDS011;59159;51.652;4.864;2023-05-10T00:09:35;6.20;;;1.80;;
71351;SDS011;59159;51.652;4.864;2023-05-10T00:12:01;8.85;;;1.73;;
71351;SDS011;59159;51.652;4.864;2023-05-10T00:14:27;6.50;;;1.90;;
71351;SDS011;59159;51.652;4.864;2023-05-10T00:16:53;4.88;;;1.30;;
71351;SDS011;59159;51.652;4.864;2023-05-10T00:19:19;5.57;;;1.67;;
71351;SDS011;59159;51.652;4.864;2023-05-10T00:21:47;5.13;;;1.65;;
71351;SDS011;59159;51.652;4.864;2023-05-10T00:24:14;5.13;;;1.67;;
71351;SDS011;59159;51.652;4.864;2023-05-10T00:26:40;5.70;;;1.70;;
71351;SDS011;59159;51.652;4.864;2023-05-10T00:29:07;5.35;;;1.63;;
71351;SDS011;59159;51.652;4.864;2023-05-10T00:31:33;6.53;;;1.47;;
71351;SDS011;59159;51.652;4.864;2023-05-10T00:33:59;6.10;;;1.95;;
71351;SDS011;59159;51.652;4.864;2023-05-10T00:36:25;4.65;;;1.58;;
71351;SDS011;59159;51.652;4.864;2023-05-10T00:38:51;5.57;;;1.60;;
71351;SDS011;59159;51.652;4.864;2023-05-10T00:41:17;5.82;;;1.60;;
71351;SDS011;59159;51.652;4.864;2023-05-10T00:43:43;5.53;;;1.90;;
71351;SDS011;59159;51.652;4.864;2023-05-10T00:46:09;5.32;;;1.80;;
71351;SDS011;59159;51.652;4.864;2023-05-10T00:48:35;4.63;;;1.37;;
71351;SDS011;59159;51.652;4.864;2023-05-10T00:51:01;6.78;;;1.83;;
71351;SDS011;59159;51.652;4.864;2023-05-10T00:53:27;6.68;;;1.70;;
71351;SDS011;59159;51.652;4.864;2023-05-10T00:55:54;5.80;;;1.73;;
71351;SDS011;59159;51.652;4.864;2023-05-10T00:58:20;6.70;;;1.48;;
71351;SDS011;59159;51.652;4.864;2023-05-10T01:00:48;5.32;;;1.42;;
71351;SDS011;59159;51.652;4.864;2023-05-10T01:03:14;5.67;;;1.87;;
71351;SDS011;59159;51.652;4.864;2023-05-10T01:05:40;5.18;;;1.80;;
71351;SDS011;59159;51.652;4.864;2023-05-10T01:08:06;5.85;;;1.30;;
71351;SDS011;59159;51.652;4.864;2023-05-10T01:10:33;5.78;;;1.90;;
71351;SDS011;59159;51.652;4.864;2023-05-10T01:12:59;6.30;;;1.70;;
71351;SDS011;59159;51.652;4.864;2023-05-10T01:15:25;5.72;;;1.55;;
71351;SDS011;59159;51.652;4.864;2023-05-10T01:17:51;4.60;;;1.42;;
71351;SDS011;59159;51.652;4.864;2023-05-10T01:20:18;6.80;;;1.90;;
71351;SDS011;59159;51.652;4.864;2023-05-10T01:22:49;5.25;;;1.65;;
71351;SDS011;59159;51.652;4.864;2023-05-10T01:25:39;5.82;;;1.50;;
71351;SDS011;59159;51.652;4.864;2023-05-10T01:28:14;5.00;;;1.77;;
71351;SDS011;59159;51.652;4.864;2023-05-10T01:33:10;6.78;;;2.00;;
71351;SDS011;59159;51.652;4.864;2023-05-10T01:43:17;6.97;;;1.83;;
71351;SDS011;59159;51.652;4.864;2023-05-10T01:48:29;7.05;;;2.20;;
71351;SDS011;59159;51.652;4.864;2023-05-10T01:50:55;6.35;;;1.60;;
71351;SDS011;59159;51.652;4.864;2023-05-10T01:53:22;7.07;;;1.87;;
71351;SDS011;59159;51.652;4.864;2023-05-10T01:55:49;5.70;;;1.50;;
71351;SDS011;59159;51.652;4.864;2023-05-10T01:58:18;6.93;;;2.00;;
71351;SDS011;59159;51.652;4.864;2023-05-10T02:00:46;7.47;;;1.50;;
71351;SDS011;59159;51.652;4.864;2023-05-10T02:03:13;5.50;;;1.70;;
71351;SDS011;59159;51.652;4.864;2023-05-10T02:05:40;6.90;;;1.95;;
71351;SDS011;59159;51.652;4.864;2023-05-10T02:08:07;5.63;;;1.88;;
71351;SDS011;59159;51.652;4.864;2023-05-10T02:10:34;4.80;;;1.60;;
71351;SDS011;59159;51.652;4.864;2023-05-10T02:13:00;5.13;;;1.80;;
71351;SDS011;59159;51.652;4.864;2023-05-10T02:15:27;4.88;;;1.73;;
71351;SDS011;59159;51.652;4.864;2023-05-10T02:17:54;5.73;;;1.70;;
71351;SDS011;59159;51.652;4.864;2023-05-10T02:20:21;5.40;;;1.70;;
71351;SDS011;59159;51.652;4.864;2023-05-10T02:22:48;5.88;;;2.03;;
71351;SDS011;59159;51.652;4.864;2023-05-10T02:25:14;5.45;;;1.80;;
71351;SDS011;59159;51.652;4.864;2023-05-10T02:27:41;6.00;;;1.90;;
71351;SDS011;59159;51.652;4.864;2023-05-10T02:30:08;6.35;;;2.10;;
71351;SDS011;59159;51.652;4.864;2023-05-10T02:32:35;5.03;;;1.50;;
71351;SDS011;59159;51.652;4.864;2023-05-10T02:35:02;5.07;;;1.77;;
71351;SDS011;59159;51.652;4.864;2023-05-10T02:37:29;6.05;;;1.88;;
71351;SDS011;59159;51.652;4.864;2023-05-10T02:39:55;5.60;;;1.48;;
71351;SDS011;59159;51.652;4.864;2023-05-10T02:42:23;5.67;;;1.80;;
71351;SDS011;59159;51.652;4.864;2023-05-10T02:44:51;5.80;;;2.15;;
71351;SDS011;59159;51.652;4.864;2023-05-10T02:47:18;5.32;;;1.92;;
71351;SDS011;59159;51.652;4.864;2023-05-10T02:49:44;5.60;;;1.85;;
71351;SDS011;59159;51.652;4.864;2023-05-10T02:52:11;5.70;;;1.90;;
71351;SDS011;59159;51.652;4.864;2023-05-10T02:54:48;6.20;;;2.10;;
71351;SDS011;59159;51.652;4.864;2023-05-10T02:57:15;5.47;;;1.70;;
71351;SDS011;59159;51.652;4.864;2023-05-10T02:59:45;5.53;;;2.43;;
71351;SDS011;59159;51.652;4.864;2023-05-10T03:02:14;5.55;;;1.88;;
71351;SDS011;59159;51.652;4.864;2023-05-10T03:04:40;7.13;;;1.90;;
71351;SDS011;59159;51.652;4.864;2023-05-10T03:07:06;5.63;;;1.77;;
71351;SDS011;59159;51.652;4.864;2023-05-10T03:09:33;6.50;;;1.85;;
71351;SDS011;59159;51.652;4.864;2023-05-10T03:12:14;5.70;;;1.88;;
71351;SDS011;59159;51.652;4.864;2023-05-10T03:14:47;6.05;;;2.30;;
71351;SDS011;59159;51.652;4.864;2023-05-10T03:17:18;6.63;;;2.00;;
71351;SDS011;59159;51.652;4.864;2023-05-10T03:19:56;5.90;;;2.05;;
71351;SDS011;59159;51.652;4.864;2023-05-10T03:22:34;7.22;;;2.50;;
71351;SDS011;59159;51.652;4.864;2023-05-10T03:25:04;7.40;;;2.13;;
71351;SDS011;59159;51.652;4.864;2023-05-10T03:27:30;6.43;;;2.53;;
71351;SDS011;59159;51.652;4.864;2023-05-10T03:29:57;6.85;;;2.80;;
71351;SDS011;59159;51.652;4.864;2023-05-10T03:32:23;7.67;;;2.73;;
71351;SDS011;59159;51.652;4.864;2023-05-10T03:34:49;7.63;;;2.45;;
71351;SDS011;59159;51.652;4.864;2023-05-10T03:37:15;7.03;;;2.75;;
71351;SDS011;59159;51.652;4.864;2023-05-10T03:39:41;5.68;;;1.92;;
71351;SDS011;59159;51.652;4.864;2023-05-10T03:42:07;6.53;;;2.50;;
71351;SDS011;59159;51.652;4.864;2023-05-10T03:44:36;6.30;;;2.88;;
71351;SDS011;59159;51.652;4.864;2023-05-10T03:47:03;6.13;;;2.35;;
71351;SDS011;59159;51.652;4.864;2023-05-10T03:49:29;5.50;;;2.17;;
71351;SDS011;59159;51.652;4.864;2023-05-10T03:51:55;7.82;;;2.63;;
71351;SDS011;59159;51.652;4.864;2023-05-10T03:54:21;6.63;;;2.17;;
71351;SDS011;59159;51.652;4.864;2023-05-10T03:56:47;9.77;;;4.00;;
71351;SDS011;59159;51.652;4.864;2023-05-10T03:59:13;11.57;;;6.15;;
71351;SDS011;59159;51.652;4.864;2023-05-10T04:01:39;13.30;;;7.13;;
71351;SDS011;59159;51.652;4.864;2023-05-10T04:04:05;16.38;;;8.18;;
71351;SDS011;59159;51.652;4.864;2023-05-10T04:06:31;14.87;;;8.07;;
71351;SDS011;59159;51.652;4.864;2023-05-10T04:08:57;14.93;;;6.95;;
71351;SDS011;59159;51.652;4.864;2023-05-10T04:11:29;13.50;;;6.45;;
71351;SDS011;59159;51.652;4.864;2023-05-10T04:13:55;12.37;;;6.03;;
71351;SDS011;59159;51.652;4.864;2023-05-10T04:16:21;13.07;;;6.50;;
71351;SDS011;59159;51.652;4.864;2023-05-10T04:18:49;12.65;;;6.30;;
71351;SDS011;59159;51.652;4.864;2023-05-10T04:21:15;13.00;;;5.87;;
71351;SDS011;59159;51.652;4.864;2023-05-10T04:23:41;11.07;;;5.53;;
71351;SDS011;59159;51.652;4.864;2023-05-10T04:26:07;10.95;;;5.28;;
71351;SDS011;59159;51.652;4.864;2023-05-10T04:28:33;12.50;;;5.13;;
71351;SDS011;59159;51.652;4.864;2023-05-10T04:31:04;10.80;;;5.00;;
71351;SDS011;59159;51.652;4.864;2023-05-10T04:33:30;11.35;;;5.40;;
71351;SDS011;59159;51.652;4.864;2023-05-10T04:35:56;10.43;;;4.60;;
71351;SDS011;59159;51.652;4.864;2023-05-10T04:38:22;8.40;;;4.50;;
71351;SDS011;59159;51.652;4.864;2023-05-10T04:40:48;9.05;;;4.38;;
71351;SDS011;59159;51.652;4.864;2023-05-10T04:43:14;10.25;;;4.78;;
71351;SDS011;59159;51.652;4.864;2023-05-10T04:45:40;9.27;;;4.00;;
71351;SDS011;59159;51.652;4.864;2023-05-10T04:48:06;11.98;;;4.00;;
71351;SDS011;59159;51.652;4.864;2023-05-10T04:50:32;9.82;;;4.10;;
71351;SDS011;59159;51.652;4.864;2023-05-10T04:52:58;9.10;;;3.90;;
71351;SDS011;59159;51.652;4.864;2023-05-10T04:55:24;9.33;;;4.10;;
71351;SDS011;59159;51.652;4.864;2023-05-10T04:57:51;10.65;;;4.10;;
71351;SDS011;59159;51.652;4.864;2023-05-10T05:00:17;7.95;;;3.40;;
71351;SDS011;59159;51.652;4.864;2023-05-10T05:02:44;8.07;;;3.50;;
71351;SDS011;59159;51.652;4.864;2023-05-10T05:05:10;8.38;;;3.25;;
71351;SDS011;59159;51.652;4.864;2023-05-10T05:07:36;9.27;;;3.30;;
71351;SDS011;59159;51.652;4.864;2023-05-10T05:10:03;8.90;;;3.83;;
71351;SDS011;59159;51.652;4.864;2023-05-10T05:12:29;7.38;;;3.05;;
71351;SDS011;59159;51.652;4.864;2023-05-10T05:14:55;7.22;;;3.30;;
71351;SDS011;59159;51.652;4.864;2023-05-10T05:17:21;8.20;;;3.00;;
71351;SDS011;59159;51.652;4.864;2023-05-10T05:19:47;8.53;;;3.17;;
71351;SDS011;59159;51.652;4.864;2023-05-10T05:22:13;7.43;;;2.97;;
71351;SDS011;59159;51.652;4.864;2023-05-10T05:24:39;8.85;;;3.75;;
71351;SDS011;59159;51.652;4.864;2023-05-10T05:27:05;7.30;;;3.10;;
71351;SDS011;59159;51.652;4.864;2023-05-10T05:29:31;7.50;;;2.78;;
71351;SDS011;59159;51.652;4.864;2023-05-10T05:31:57;7.28;;;2.58;;
71351;SDS011;59159;51.652;4.864;2023-05-10T05:34:23;7.57;;;3.20;;
71351;SDS011;59159;51.652;4.864;2023-05-10T05:36:50;14.50;;;3.63;;
71351;SDS011;59159;51.652;4.864;2023-05-10T05:39:16;7.75;;;3.28;;
71351;SDS011;59159;51.652;4.864;2023-05-10T05:41:42;8.43;;;3.90;;
71351;SDS011;59159;51.652;4.864;2023-05-10T05:44:08;7.40;;;3.33;;
71351;SDS011;59159;51.652;4.864;2023-05-10T05:46:34;6.93;;;3.30;;
71351;SDS011;59159;51.652;4.864;2023-05-10T05:49:01;8.27;;;3.65;;
71351;SDS011;59159;51.652;4.864;2023-05-10T05:51:27;8.17;;;3.40;;
71351;SDS011;59159;51.652;4.864;2023-05-10T05:53:52;7.90;;;3.28;;
71351;SDS011;59159;51.652;4.864;2023-05-10T05:56:19;8.07;;;3.42;;
71351;SDS011;59159;51.652;4.864;2023-05-10T05:58:49;7.20;;;3.50;;
71351;SDS011;59159;51.652;4.864;2023-05-10T06:01:15;8.20;;;3.63;;
71351;SDS011;59159;51.652;4.864;2023-05-10T06:03:41;8.20;;;3.55;;
71351;SDS011;59159;51.652;4.864;2023-05-10T06:06:07;9.88;;;3.53;;
71351;SDS011;59159;51.652;4.864;2023-05-10T06:08:33;6.97;;;3.23;;
71351;SDS011;59159;51.652;4.864;2023-05-10T06:11:00;7.13;;;3.10;;
71351;SDS011;59159;51.652;4.864;2023-05-10T06:13:26;7.43;;;3.17;;
71351;SDS011;59159;51.652;4.864;2023-05-10T06:15:59;6.83;;;2.83;;
71351;SDS011;59159;51.652;4.864;2023-05-10T06:18:26;7.28;;;3.38;;
71351;SDS011;59159;51.652;4.864;2023-05-10T06:20:52;8.10;;;2.65;;
71351;SDS011;59159;51.652;4.864;2023-05-10T06:23:18;7.40;;;3.03;;
71351;SDS011;59159;51.652;4.864;2023-05-10T06:25:44;7.25;;;2.78;;
71351;SDS011;59159;51.652;4.864;2023-05-10T06:28:10;8.48;;;2.90;;
71351;SDS011;59159;51.652;4.864;2023-05-10T06:30:36;8.38;;;2.83;;
71351;SDS011;59159;51.652;4.864;2023-05-10T06:33:02;8.03;;;2.83;;
71351;SDS011;59159;51.652;4.864;2023-05-10T06:35:28;8.95;;;2.95;;
71351;SDS011;59159;51.652;4.864;2023-05-10T06:37:54;7.05;;;2.72;;
71351;SDS011;59159;51.652;4.864;2023-05-10T06:40:21;6.30;;;2.30;;
71351;SDS011;59159;51.652;4.864;2023-05-10T06:42:47;8.45;;;3.00;;
71351;SDS011;59159;51.652;4.864;2023-05-10T06:45:14;7.40;;;2.42;;
71351;SDS011;59159;51.652;4.864;2023-05-10T06:47:40;6.43;;;2.13;;
71351;SDS011;59159;51.652;4.864;2023-05-10T06:50:07;7.13;;;2.10;;
71351;SDS011;59159;51.652;4.864;2023-05-10T06:52:33;7.82;;;2.65;;
71351;SDS011;59159;51.652;4.864;2023-05-10T06:54:59;8.05;;;2.58;;
71351;SDS011;59159;51.652;4.864;2023-05-10T06:57:25;7.07;;;2.47;;
71351;SDS011;59159;51.652;4.864;2023-05-10T06:59:51;6.00;;;1.98;;
71351;SDS011;59159;51.652;4.864;2023-05-10T07:02:18;5.43;;;1.98;;
71351;SDS011;59159;51.652;4.864;2023-05-10T07:04:44;5.63;;;2.17;;
71351;SDS011;59159;51.652;4.864;2023-05-10T07:07:10;6.18;;;2.08;;
71351;SDS011;59159;51.652;4.864;2023-05-10T07:09:36;5.93;;;2.15;;
71351;SDS011;59159;51.652;4.864;2023-05-10T07:12:02;5.13;;;2.03;;
71351;SDS011;59159;51.652;4.864;2023-05-10T07:14:28;5.90;;;2.10;;
71351;SDS011;59159;51.652;4.864;2023-05-10T07:16:53;4.60;;;1.90;;
71351;SDS011;59159;51.652;4.864;2023-05-10T07:19:21;4.70;;;1.70;;
71351;SDS011;59159;51.652;4.864;2023-05-10T07:21:47;5.50;;;1.80;;
71351;SDS011;59159;51.652;4.864;2023-05-10T07:24:13;6.75;;;2.17;;
71351;SDS011;59159;51.652;4.864;2023-05-10T07:26:39;6.75;;;1.90;;
71351;SDS011;59159;51.652;4.864;2023-05-10T07:29:05;6.43;;;2.13;;
71351;SDS011;59159;51.652;4.864;2023-05-10T07:31:31;5.78;;;1.67;;
71351;SDS011;59159;51.652;4.864;2023-05-10T07:33:57;4.03;;;1.40;;
71351;SDS011;59159;51.652;4.864;2023-05-10T07:36:23;5.23;;;1.67;;
71351;SDS011;59159;51.652;4.864;2023-05-10T07:38:49;4.03;;;1.48;;
71351;SDS011;59159;51.652;4.864;2023-05-10T07:41:15;4.63;;;1.75;;
71351;SDS011;59159;51.652;4.864;2023-05-10T07:43:41;5.38;;;2.35;;
71351;SDS011;59159;51.652;4.864;2023-05-10T07:46:07;7.20;;;1.80;;
71351;SDS011;59159;51.652;4.864;2023-05-10T07:48:35;4.30;;;1.50;;
71351;SDS011;59159;51.652;4.864;2023-05-10T07:51:01;6.88;;;1.83;;
71351;SDS011;59159;51.652;4.864;2023-05-10T07:53:27;6.73;;;2.10;;
71351;SDS011;59159;51.652;4.864;2023-05-10T07:55:59;4.28;;;1.40;;
71351;SDS011;59159;51.652;4.864;2023-05-10T07:58:25;5.15;;;1.30;;
71351;SDS011;59159;51.652;4.864;2023-05-10T08:00:51;4.97;;;1.73;;
71351;SDS011;59159;51.652;4.864;2023-05-10T08:03:17;6.80;;;1.50;;
71351;SDS011;59159;51.652;4.864;2023-05-10T08:05:43;4.50;;;1.38;;
71351;SDS011;59159;51.652;4.864;2023-05-10T08:08:09;5.63;;;1.63;;
71351;SDS011;59159;51.652;4.864;2023-05-10T08:10:35;5.23;;;1.60;;
71351;SDS011;59159;51.652;4.864;2023-05-10T08:13:01;4.90;;;1.60;;
71351;SDS011;59159;51.652;4.864;2023-05-10T08:15:27;5.50;;;1.70;;
71351;SDS011;59159;51.652;4.864;2023-05-10T08:17:53;5.33;;;1.73;;
71351;SDS011;59159;51.652;4.864;2023-05-10T08:20:19;4.97;;;1.60;;
71351;SDS011;59159;51.652;4.864;2023-05-10T08:22:45;7.35;;;1.90;;
71351;SDS011;59159;51.652;4.864;2023-05-10T08:25:12;4.73;;;1.47;;
71351;SDS011;59159;51.652;4.864;2023-05-10T08:27:37;4.15;;;1.30;;
71351;SDS011;59159;51.652;4.864;2023-05-10T08:30:04;6.10;;;1.70;;
71351;SDS011;59159;51.652;4.864;2023-05-10T08:32:30;5.32;;;1.63;;
71351;SDS011;59159;51.652;4.864;2023-05-10T08:34:56;4.27;;;1.50;;
71351;SDS011;59159;51.652;4.864;2023-05-10T08:37:23;4.68;;;1.50;;
71351;SDS011;59159;51.652;4.864;2023-05-10T08:39:49;5.65;;;1.58;;
71351;SDS011;59159;51.652;4.864;2023-05-10T08:42:19;6.07;;;1.50;;
71351;SDS011;59159;51.652;4.864;2023-05-10T08:44:45;4.32;;;1.50;;
71351;SDS011;59159;51.652;4.864;2023-05-10T08:47:12;4.80;;;1.60;;
71351;SDS011;59159;51.652;4.864;2023-05-10T08:49:39;4.07;;;1.30;;
71351;SDS011;59159;51.652;4.864;2023-05-10T08:52:05;6.70;;;1.65;;
71351;SDS011;59159;51.652;4.864;2023-05-10T08:54:32;4.32;;;1.33;;
71351;SDS011;59159;51.652;4.864;2023-05-10T08:56:59;5.32;;;1.48;;
71351;SDS011;59159;51.652;4.864;2023-05-10T08:59:25;4.80;;;1.30;;
71351;SDS011;59159;51.652;4.864;2023-05-10T09:01:51;4.35;;;1.40;;
71351;SDS011;59159;51.652;4.864;2023-05-10T09:04:18;4.43;;;1.27;;
71351;SDS011;59159;51.652;4.864;2023-05-10T09:06:44;5.47;;;1.40;;
71351;SDS011;59159;51.652;4.864;2023-05-10T09:09:11;4.88;;;1.10;;
71351;SDS011;59159;51.652;4.864;2023-05-10T09:11:37;4.55;;;1.20;;
71351;SDS011;59159;51.652;4.864;2023-05-10T09:14:03;5.67;;;1.50;;
71351;SDS011;59159;51.652;4.864;2023-05-10T09:16:29;5.40;;;1.25;;
71351;SDS011;59159;51.652;4.864;2023-05-10T09:18:55;4.20;;;1.40;;
71351;SDS011;59159;51.652;4.864;2023-05-10T09:21:21;4.40;;;1.30;;
71351;SDS011;59159;51.652;4.864;2023-05-10T09:23:47;5.00;;;1.50;;
71351;SDS011;59159;51.652;4.864;2023-05-10T09:26:15;4.78;;;1.40;;
71351;SDS011;59159;51.652;4.864;2023-05-10T09:31:16;4.27;;;1.17;;
71351;SDS011;59159;51.652;4.864;2023-05-10T09:33:45;5.30;;;1.30;;
71351;SDS011;59159;51.652;4.864;2023-05-10T09:36:12;5.43;;;1.50;;
71351;SDS011;59159;51.652;4.864;2023-05-10T09:38:44;5.63;;;1.47;;
71351;SDS011;59159;51.652;4.864;2023-05-10T09:41:21;3.67;;;1.15;;
71351;SDS011;59159;51.652;4.864;2023-05-10T09:43:47;4.22;;;1.10;;
71351;SDS011;59159;51.652;4.864;2023-05-10T09:46:14;4.13;;;1.10;;
71351;SDS011;59159;51.652;4.864;2023-05-10T09:48:45;3.67;;;1.20;;
71351;SDS011;59159;51.652;4.864;2023-05-10T09:51:18;5.03;;;1.33;;
71351;SDS011;59159;51.652;4.864;2023-05-10T09:53:45;4.85;;;1.48;;
71351;SDS011;59159;51.652;4.864;2023-05-10T09:56:11;3.63;;;1.23;;
71351;SDS011;59159;51.652;4.864;2023-05-10T09:58:37;4.15;;;1.33;;
71351;SDS011;59159;51.652;4.864;2023-05-10T10:01:03;5.15;;;1.05;;
71351;SDS011;59159;51.652;4.864;2023-05-10T10:03:29;4.60;;;0.93;;
71351;SDS011;59159;51.652;4.864;2023-05-10T10:05:56;3.42;;;0.93;;
71351;SDS011;59159;51.652;4.864;2023-05-10T10:08:22;4.18;;;1.00;;
71351;SDS011;59159;51.652;4.864;2023-05-10T10:10:48;5.35;;;1.10;;
71351;SDS011;59159;51.652;4.864;2023-05-10T10:13:15;4.90;;;1.30;;
71351;SDS011;59159;51.652;4.864;2023-05-10T10:15:42;5.65;;;1.40;;
71351;SDS011;59159;51.652;4.864;2023-05-10T10:18:12;3.22;;;1.00;;
71351;SDS011;59159;51.652;4.864;2023-05-10T10:20:38;3.80;;;1.30;;
71351;SDS011;59159;51.652;4.864;2023-05-10T10:23:04;4.63;;;1.15;;
71351;SDS011;59159;51.652;4.864;2023-05-10T10:25:30;3.28;;;1.10;;
71351;SDS011;59159;51.652;4.864;2023-05-10T10:28:04;3.27;;;1.00;;
71351;SDS011;59159;51.652;4.864;2023-05-10T10:35:34;3.67;;;1.27;;
71351;SDS011;59159;51.652;4.864;2023-05-10T10:38:00;3.33;;;1.10;;
71351;SDS011;59159;51.652;4.864;2023-05-10T10:40:30;3.70;;;1.10;;
71351;SDS011;59159;51.652;4.864;2023-05-10T10:42:57;3.25;;;0.90;;
71351;SDS011;59159;51.652;4.864;2023-05-10T10:45:23;4.23;;;1.10;;
71351;SDS011;59159;51.652;4.864;2023-05-10T10:50:42;4.28;;;1.20;;
71351;SDS011;59159;51.652;4.864;2023-05-10T10:53:12;4.00;;;1.30;;
71351;SDS011;59159;51.652;4.864;2023-05-10T10:55:47;2.90;;;1.00;;
71351;SDS011;59159;51.652;4.864;2023-05-10T10:58:32;3.63;;;1.02;;
71351;SDS011;59159;51.652;4.864;2023-05-10T11:01:14;3.50;;;1.10;;
71351;SDS011;59159;51.652;4.864;2023-05-10T11:06:30;3.08;;;0.90;;
71351;SDS011;59159;51.652;4.864;2023-05-10T11:09:00;3.72;;;0.90;;
71351;SDS011;59159;51.652;4.864;2023-05-10T11:11:30;4.37;;;1.13;;
71351;SDS011;59159;51.652;4.864;2023-05-10T11:13:56;3.13;;;1.08;;
71351;SDS011;59159;51.652;4.864;2023-05-10T11:16:28;5.28;;;1.27;;
71351;SDS011;59159;51.652;4.864;2023-05-10T11:19:05;3.10;;;0.90;;
71351;SDS011;59159;51.652;4.864;2023-05-10T11:21:32;4.35;;;1.00;;
71351;SDS011;59159;51.652;4.864;2023-05-10T11:23:59;3.47;;;1.08;;
71351;SDS011;59159;51.652;4.864;2023-05-10T11:26:29;4.80;;;1.30;;
71351;SDS011;59159;51.652;4.864;2023-05-10T11:28:56;3.70;;;1.10;;
71351;SDS011;59159;51.652;4.864;2023-05-10T11:31:23;4.45;;;1.17;;
71351;SDS011;59159;51.652;4.864;2023-05-10T11:33:52;3.85;;;1.10;;
71351;SDS011;59159;51.652;4.864;2023-05-10T11:36:19;4.07;;;1.00;;
71351;SDS011;59159;51.652;4.864;2023-05-10T11:38:46;3.90;;;0.98;;
71351;SDS011;59159;51.652;4.864;2023-05-10T11:41:13;3.97;;;1.27;;
71351;SDS011;59159;51.652;4.864;2023-05-10T11:43:39;3.33;;;0.90;;
71351;SDS011;59159;51.652;4.864;2023-05-10T11:46:06;4.20;;;1.30;;
71351;SDS011;59159;51.652;4.864;2023-05-10T11:48:32;3.38;;;1.10;;
71351;SDS011;59159;51.652;4.864;2023-05-10T11:50:58;3.63;;;1.00;;
71351;SDS011;59159;51.652;4.864;2023-05-10T11:53:31;4.40;;;1.30;;
71351;SDS011;59159;51.652;4.864;2023-05-10T11:56:09;3.83;;;1.17;;
71351;SDS011;59159;51.652;4.864;2023-05-10T11:58:36;3.83;;;1.10;;
71351;SDS011;59159;51.652;4.864;2023-05-10T12:01:03;3.27;;;0.93;;
71351;SDS011;59159;51.652;4.864;2023-05-10T12:03:29;3.80;;;1.23;;
71351;SDS011;59159;51.652;4.864;2023-05-10T12:05:56;4.10;;;1.02;;
71351;SDS011;59159;51.652;4.864;2023-05-10T12:08:23;4.27;;;1.17;;
71351;SDS011;59159;51.652;4.864;2023-05-10T12:10:50;3.58;;;0.90;;
71351;SDS011;59159;51.652;4.864;2023-05-10T12:13:16;4.85;;;1.00;;
71351;SDS011;59159;51.652;4.864;2023-05-10T12:15:42;4.57;;;1.13;;
71351;SDS011;59159;51.652;4.864;2023-05-10T12:18:09;3.77;;;1.10;;
71351;SDS011;59159;51.652;4.864;2023-05-10T12:20:35;2.85;;;0.90;;
71351;SDS011;59159;51.652;4.864;2023-05-10T12:23:01;2.80;;;0.82;;
71351;SDS011;59159;51.652;4.864;2023-05-10T12:25:35;3.63;;;1.10;;
71351;SDS011;59159;51.652;4.864;2023-05-10T12:28:05;3.40;;;0.98;;
71351;SDS011;59159;51.652;4.864;2023-05-10T12:30:32;4.25;;;1.20;;
71351;SDS011;59159;51.652;4.864;2023-05-10T12:33:02;2.97;;;1.00;;
71351;SDS011;59159;51.652;4.864;2023-05-10T12:35:32;3.30;;;1.00;;
71351;SDS011;59159;51.652;4.864;2023-05-10T12:37:58;3.35;;;0.95;;
71351;SDS011;59159;51.652;4.864;2023-05-10T12:40:25;3.25;;;1.00;;
71351;SDS011;59159;51.652;4.864;2023-05-10T12:42:51;3.20;;;1.00;;
71351;SDS011;59159;51.652;4.864;2023-05-10T12:45:17;4.18;;;0.98;;
71351;SDS011;59159;51.652;4.864;2023-05-10T12:47:43;3.95;;;1.00;;
71351;SDS011;59159;51.652;4.864;2023-05-10T12:50:09;3.73;;;1.00;;
71351;SDS011;59159;51.652;4.864;2023-05-10T12:52:36;3.95;;;1.05;;
71351;SDS011;59159;51.652;4.864;2023-05-10T12:55:02;3.95;;;1.05;;
71351;SDS011;59159;51.652;4.864;2023-05-10T12:57:28;4.40;;;1.13;;
71351;SDS011;59159;51.652;4.864;2023-05-10T12:59:54;3.88;;;1.08;;
71351;SDS011;59159;51.652;4.864;2023-05-10T13:02:20;3.17;;;0.90;;
71351;SDS011;59159;51.652;4.864;2023-05-10T13:04:47;4.85;;;1.27;;
71351;SDS011;59159;51.652;4.864;2023-05-10T13:07:13;3.67;;;1.20;;
71351;SDS011;59159;51.652;4.864;2023-05-10T13:09:40;2.80;;;0.80;;
71351;SDS011;59159;51.652;4.864;2023-05-10T13:12:06;3.78;;;0.90;;
71351;SDS011;59159;51.652;4.864;2023-05-10T13:14:32;3.83;;;0.93;;
71351;SDS011;59159;51.652;4.864;2023-05-10T13:16:58;3.58;;;1.52;;
71351;SDS011;59159;51.652;4.864;2023-05-10T13:19:24;3.25;;;0.98;;
71351;SDS011;59159;51.652;4.864;2023-05-10T13:21:50;3.13;;;0.90;;
71351;SDS011;59159;51.652;4.864;2023-05-10T13:24:16;3.70;;;0.90;;
71351;SDS011;59159;51.652;4.864;2023-05-10T13:26:42;3.47;;;1.00;;
71351;SDS011;59159;51.652;4.864;2023-05-10T13:29:08;3.85;;;1.40;;
71351;SDS011;59159;51.652;4.864;2023-05-10T13:31:34;2.67;;;0.90;;
71351;SDS011;59159;51.652;4.864;2023-05-10T13:34:01;3.33;;;1.10;;
71351;SDS011;59159;51.652;4.864;2023-05-10T13:36:27;3.35;;;0.88;;
71351;SDS011;59159;51.652;4.864;2023-05-10T13:38:53;2.53;;;0.80;;
71351;SDS011;59159;51.652;4.864;2023-05-10T13:41:19;3.17;;;0.80;;
71351;SDS011;59159;51.652;4.864;2023-05-10T13:43:45;2.90;;;0.90;;
71351;SDS011;59159;51.652;4.864;2023-05-10T13:46:13;2.30;;;0.70;;
71351;SDS011;59159;51.652;4.864;2023-05-10T13:48:39;3.10;;;0.80;;
71351;SDS011;59159;51.652;4.864;2023-05-10T13:51:05;3.03;;;0.70;;
71351;SDS011;59159;51.652;4.864;2023-05-10T13:53:31;2.95;;;0.85;;
71351;SDS011;59159;51.652;4.864;2023-05-10T13:55:57;2.90;;;0.90;;
71351;SDS011;59159;51.652;4.864;2023-05-10T13:58:23;2.70;;;0.80;;
71351;SDS011;59159;51.652;4.864;2023-05-10T14:00:49;2.88;;;0.88;;
71351;SDS011;59159;51.652;4.864;2023-05-10T14:03:15;2.93;;;0.87;;
71351;SDS011;59159;51.652;4.864;2023-05-10T14:05:41;2.80;;;0.77;;
71351;SDS011;59159;51.652;4.864;2023-05-10T14:08:07;3.13;;;0.80;;
71351;SDS011;59159;51.652;4.864;2023-05-10T14:10:34;3.40;;;0.80;;
71351;SDS011;59159;51.652;4.864;2023-05-10T14:13:01;3.33;;;0.80;;
71351;SDS011;59159;51.652;4.864;2023-05-10T14:15:28;3.08;;;0.77;;
71351;SDS011;59159;51.652;4.864;2023-05-10T14:17:54;3.08;;;1.10;;
71351;SDS011;59159;51.652;4.864;2023-05-10T14:20:20;2.47;;;0.67;;
71351;SDS011;59159;51.652;4.864;2023-05-10T14:22:46;2.85;;;0.90;;
71351;SDS011;59159;51.652;4.864;2023-05-10T14:25:12;3.47;;;0.85;;
71351;SDS011;59159;51.652;4.864;2023-05-10T14:27:38;2.53;;;0.80;;
71351;SDS011;59159;51.652;4.864;2023-05-10T14:30:05;2.00;;;0.80;;
71351;SDS011;59159;51.652;4.864;2023-05-10T14:32:31;4.13;;;1.00;;
71351;SDS011;59159;51.652;4.864;2023-05-10T14:34:57;2.33;;;0.90;;
71351;SDS011;59159;51.652;4.864;2023-05-10T14:37:23;2.30;;;0.80;;
71351;SDS011;59159;51.652;4.864;2023-05-10T14:39:49;2.38;;;0.70;;
71351;SDS011;59159;51.652;4.864;2023-05-10T14:42:15;3.83;;;1.02;;
71351;SDS011;59159;51.652;4.864;2023-05-10T14:44:41;2.87;;;0.80;;
71351;SDS011;59159;51.652;4.864;2023-05-10T14:47:07;2.55;;;0.70;;
71351;SDS011;59159;51.652;4.864;2023-05-10T14:49:33;2.35;;;0.75;;
71351;SDS011;59159;51.652;4.864;2023-05-10T14:51:59;3.07;;;0.80;;
71351;SDS011;59159;51.652;4.864;2023-05-10T14:54:25;2.65;;;0.80;;
71351;SDS011;59159;51.652;4.864;2023-05-10T14:56:52;2.83;;;0.80;;
71351;SDS011;59159;51.652;4.864;2023-05-10T14:59:18;3.17;;;0.80;;
71351;SDS011;59159;51.652;4.864;2023-05-10T15:01:44;2.33;;;0.77;;
71351;SDS011;59159;51.652;4.864;2023-05-10T15:04:10;2.15;;;0.70;;
71351;SDS011;59159;51.652;4.864;2023-05-10T15:06:38;3.83;;;0.90;;
71351;SDS011;59159;51.652;4.864;2023-05-10T15:09:04;2.43;;;0.80;;
71351;SDS011;59159;51.652;4.864;2023-05-10T15:11:30;3.28;;;0.82;;
71351;SDS011;59159;51.652;4.864;2023-05-10T15:13:57;2.28;;;0.70;;